sensor_id;sensor_type;location;lat;lon;timestamp;pressure;altitude;pressure_sealevel;temperature
20733;BMP180;10527;52.124;5.196;2023-05-20T00:00:51;102444.00;;;25.70
20733;BMP180;10527;52.124;5.196;2023-05-20T00:03:19;102443.00;;;25.70
20733;BMP180;10527;52.124;5.196;2023-05-20T00:05:46;102439.00;;;25.60
20733;BMP180;10527;52.124;5.196;2023-05-20T00:08:14;102436.00;;;25.60
20733;BMP180;10527;52.124;5.196;2023-05-20T00:10:41;102439.00;;;25.60
20733;BMP180;10527;52.124;5.196;2023-05-20T00:13:08;102437.00;;;25.50
20733;BMP180;10527;52.124;5.196;2023-05-20T00:15:34;102438.00;;;25.50
20733;BMP180;10527;52.124;5.196;2023-05-20T00:18:03;102433.00;;;25.50
20733;BMP180;10527;52.124;5.196;2023-05-20T00:20:31;102446.00;;;25.50
20733;BMP180;10527;52.124;5.196;2023-05-20T00:22:58;102436.00;;;25.40
20733;BMP180;10527;52.124;5.196;2023-05-20T00:25:25;102442.00;;;25.40
20733;BMP180;10527;52.124;5.196;2023-05-20T00:27:52;102449.00;;;25.40
20733;BMP180;10527;52.124;5.196;2023-05-20T00:30:19;102443.00;;;25.40
20733;BMP180;10527;52.124;5.196;2023-05-20T00:32:47;102443.00;;;25.40
20733;BMP180;10527;52.124;5.196;2023-05-20T00:35:14;102438.00;;;25.30
20733;BMP180;10527;52.124;5.196;2023-05-20T00:37:40;102445.00;;;25.30
20733;BMP180;10527;52.124;5.196;2023-05-20T00:40:07;102444.00;;;25.30
20733;BMP180;10527;52.124;5.196;2023-05-20T00:42:34;102444.00;;;25.30
20733;BMP180;10527;52.124;5.196;2023-05-20T00:45:01;102449.00;;;25.20
20733;BMP180;10527;52.124;5.196;2023-05-20T00:47:33;102439.00;;;25.20
20733;BMP180;10527;52.124;5.196;2023-05-20T00:50:03;102438.00;;;25.20
20733;BMP180;10527;52.124;5.196;2023-05-20T00:52:31;102444.00;;;25.20
20733;BMP180;10527;52.124;5.196;2023-05-20T00:54:59;102437.00;;;25.20
20733;BMP180;10527;52.124;5.196;2023-05-20T00:57:26;102432.00;;;25.10
20733;BMP180;10527;52.124;5.196;2023-05-20T00:59:54;102431.00;;;25.10
20733;BMP180;10527;52.124;5.196;2023-05-20T01:02:21;102419.00;;;25.00
20733;BMP180;10527;52.124;5.196;2023-05-20T01:04:49;102413.00;;;25.00
20733;BMP180;10527;52.124;5.196;2023-05-20T01:07:18;102415.00;;;25.00
20733;BMP180;10527;52.124;5.196;2023-05-20T01:09:45;102414.00;;;25.00
20733;BMP180;10527;52.124;5.196;2023-05-20T01:12:20;102419.00;;;24.90
20733;BMP180;10527;52.124;5.196;2023-05-20T01:14:52;102401.00;;;24.90
20733;BMP180;10527;52.124;5.196;2023-05-20T01:17:25;102412.00;;;24.90
20733;BMP180;10527;52.124;5.196;2023-05-20T01:19:54;102400.00;;;24.90
20733;BMP180;10527;52.124;5.196;2023-05-20T01:22:26;102400.00;;;24.90
20733;BMP180;10527;52.124;5.196;2023-05-20T01:24:54;102402.00;;;24.80
20733;BMP180;10527;52.124;5.196;2023-05-20T01:27:22;102404.00;;;24.80
20733;BMP180;10527;52.124;5.196;2023-05-20T01:29:50;102402.00;;;24.80
20733;BMP180;10527;52.124;5.196;2023-05-20T01:32:40;102401.00;;;24.80
20733;BMP180;10527;52.124;5.196;2023-05-20T01:35:09;102392.00;;;24.80
20733;BMP180;10527;52.124;5.196;2023-05-20T01:37:39;102393.00;;;24.70
20733;BMP180;10527;52.124;5.196;2023-05-20T01:40:08;102390.00;;;24.70
20733;BMP180;10527;52.124;5.196;2023-05-20T01:42:37;102382.00;;;24.70
20733;BMP180;10527;52.124;5.196;2023-05-20T01:45:06;102388.00;;;24.70
20733;BMP180;10527;52.124;5.196;2023-05-20T01:47:33;102382.00;;;24.60
20733;BMP180;10527;52.124;5.196;2023-05-20T01:50:00;102392.00;;;24.60
20733;BMP180;10527;52.124;5.196;2023-05-20T01:52:27;102385.00;;;24.60
20733;BMP180;10527;52.124;5.196;2023-05-20T01:54:54;102390.00;;;24.50
20733;BMP180;10527;52.124;5.196;2023-05-20T01:57:22;102383.00;;;24.50
20733;BMP180;10527;52.124;5.196;2023-05-20T01:59:49;102382.00;;;24.50
20733;BMP180;10527;52.124;5.196;2023-05-20T02:02:16;102384.00;;;24.40
20733;BMP180;10527;52.124;5.196;2023-05-20T02:04:52;102383.00;;;24.40
20733;BMP180;10527;52.124;5.196;2023-05-20T02:07:19;102389.00;;;24.40
20733;BMP180;10527;52.124;5.196;2023-05-20T02:09:46;102375.00;;;24.40
20733;BMP180;10527;52.124;5.196;2023-05-20T02:12:13;102381.00;;;24.40
20733;BMP180;10527;52.124;5.196;2023-05-20T02:14:46;102387.00;;;24.30
20733;BMP180;10527;52.124;5.196;2023-05-20T02:17:13;102382.00;;;24.30
20733;BMP180;10527;52.124;5.196;2023-05-20T02:19:45;102386.00;;;24.30
20733;BMP180;10527;52.124;5.196;2023-05-20T02:22:13;102388.00;;;24.30
20733;BMP180;10527;52.124;5.196;2023-05-20T02:24:40;102385.00;;;24.30
20733;BMP180;10527;52.124;5.196;2023-05-20T02:27:08;102382.00;;;24.30
20733;BMP180;10527;52.124;5.196;2023-05-20T02:29:35;102376.00;;;24.20
20733;BMP180;10527;52.124;5.196;2023-05-20T02:32:02;102384.00;;;24.20
20733;BMP180;10527;52.124;5.196;2023-05-20T02:34:31;102373.00;;;24.20
20733;BMP180;10527;52.124;5.196;2023-05-20T02:36:58;102374.00;;;24.20
20733;BMP180;10527;52.124;5.196;2023-05-20T02:39:25;102378.00;;;24.20
20733;BMP180;10527;52.124;5.196;2023-05-20T02:41:54;102364.00;;;24.20
20733;BMP180;10527;52.124;5.196;2023-05-20T02:44:20;102370.00;;;24.10
20733;BMP180;10527;52.124;5.196;2023-05-20T02:46:50;102367.00;;;24.10
20733;BMP180;10527;52.124;5.196;2023-05-20T02:49:17;102368.00;;;24.10
20733;BMP180;10527;52.124;5.196;2023-05-20T02:51:44;102363.00;;;24.10
20733;BMP180;10527;52.124;5.196;2023-05-20T02:54:10;102362.00;;;24.10
20733;BMP180;10527;52.124;5.196;2023-05-20T02:56:37;102362.00;;;24.10
20733;BMP180;10527;52.124;5.196;2023-05-20T02:59:05;102355.00;;;24.00
20733;BMP180;10527;52.124;5.196;2023-05-20T03:01:32;102364.00;;;24.00
20733;BMP180;10527;52.124;5.196;2023-05-20T03:04:04;102362.00;;;24.00
20733;BMP180;10527;52.124;5.196;2023-05-20T03:06:31;102363.00;;;24.00
20733;BMP180;10527;52.124;5.196;2023-05-20T03:08:58;102362.00;;;24.00
20733;BMP180;10527;52.124;5.196;2023-05-20T03:11:25;102355.00;;;23.90
20733;BMP180;10527;52.124;5.196;2023-05-20T03:13:52;102351.00;;;23.90
20733;BMP180;10527;52.124;5.196;2023-05-20T03:16:19;102355.00;;;23.90
20733;BMP180;10527;52.124;5.196;2023-05-20T03:18:46;102350.00;;;23.90
20733;BMP180;10527;52.124;5.196;2023-05-20T03:21:12;102363.00;;;23.90
20733;BMP180;10527;52.124;5.196;2023-05-20T03:23:39;102366.00;;;23.80
20733;BMP180;10527;52.124;5.196;2023-05-20T03:26:06;102357.00;;;23.80
20733;BMP180;10527;52.124;5.196;2023-05-20T03:28:34;102358.00;;;23.80
20733;BMP180;10527;52.124;5.196;2023-05-20T03:31:01;102366.00;;;23.80
20733;BMP180;10527;52.124;5.196;2023-05-20T03:33:29;102366.00;;;23.80
20733;BMP180;10527;52.124;5.196;2023-05-20T03:35:56;102364.00;;;23.80
20733;BMP180;10527;52.124;5.196;2023-05-20T03:38:23;102370.00;;;23.80
20733;BMP180;10527;52.124;5.196;2023-05-20T03:40:50;102355.00;;;23.80
20733;BMP180;10527;52.124;5.196;2023-05-20T03:43:17;102362.00;;;23.70
20733;BMP180;10527;52.124;5.196;2023-05-20T03:45:44;102362.00;;;23.70
20733;BMP180;10527;52.124;5.196;2023-05-20T03:48:11;102365.00;;;23.70
20733;BMP180;10527;52.124;5.196;2023-05-20T03:50:37;102357.00;;;23.60
20733;BMP180;10527;52.124;5.196;2023-05-20T03:53:04;102367.00;;;23.60
20733;BMP180;10527;52.124;5.196;2023-05-20T03:55:32;102363.00;;;23.60
20733;BMP180;10527;52.124;5.196;2023-05-20T03:58:00;102359.00;;;23.60
20733;BMP180;10527;52.124;5.196;2023-05-20T04:00:27;102363.00;;;23.60
20733;BMP180;10527;52.124;5.196;2023-05-20T04:02:57;102361.00;;;23.60
20733;BMP180;10527;52.124;5.196;2023-05-20T04:05:24;102350.00;;;23.60
20733;BMP180;10527;52.124;5.196;2023-05-20T04:07:51;102353.00;;;23.50
20733;BMP180;10527;52.124;5.196;2023-05-20T04:10:18;102358.00;;;23.50
20733;BMP180;10527;52.124;5.196;2023-05-20T04:12:46;102360.00;;;23.50
20733;BMP180;10527;52.124;5.196;2023-05-20T04:15:13;102354.00;;;23.50
20733;BMP180;10527;52.124;5.196;2023-05-20T04:17:40;102354.00;;;23.50
20733;BMP180;10527;52.124;5.196;2023-05-20T04:20:09;102361.00;;;23.50
20733;BMP180;10527;52.124;5.196;2023-05-20T04:22:36;102358.00;;;23.50
20733;BMP180;10527;52.124;5.196;2023-05-20T04:25:05;102357.00;;;23.50
20733;BMP180;10527;52.124;5.196;2023-05-20T04:27:32;102364.00;;;23.50
20733;BMP180;10527;52.124;5.196;2023-05-20T04:29:59;102366.00;;;23.50
20733;BMP180;10527;52.124;5.196;2023-05-20T04:32:27;102358.00;;;23.50
20733;BMP180;10527;52.124;5.196;2023-05-20T04:34:54;102364.00;;;23.50
20733;BMP180;10527;52.124;5.196;2023-05-20T04:37:21;102366.00;;;23.50
20733;BMP180;10527;52.124;5.196;2023-05-20T04:39:48;102357.00;;;23.50
20733;BMP180;10527;52.124;5.196;2023-05-20T04:42:18;102360.00;;;23.50
20733;BMP180;10527;52.124;5.196;2023-05-20T04:44:48;102363.00;;;23.50
20733;BMP180;10527;52.124;5.196;2023-05-20T04:47:15;102369.00;;;23.50
20733;BMP180;10527;52.124;5.196;2023-05-20T04:49:41;102366.00;;;23.50
20733;BMP180;10527;52.124;5.196;2023-05-20T04:52:08;102367.00;;;23.50
20733;BMP180;10527;52.124;5.196;2023-05-20T04:54:36;102373.00;;;23.50
20733;BMP180;10527;52.124;5.196;2023-05-20T04:57:04;102371.00;;;23.60
20733;BMP180;10527;52.124;5.196;2023-05-20T04:59:32;102375.00;;;23.60
20733;BMP180;10527;52.124;5.196;2023-05-20T05:02:00;102365.00;;;23.60
20733;BMP180;10527;52.124;5.196;2023-05-20T05:04:27;102364.00;;;23.60
20733;BMP180;10527;52.124;5.196;2023-05-20T05:06:54;102362.00;;;23.60
20733;BMP180;10527;52.124;5.196;2023-05-20T05:09:21;102363.00;;;23.60
20733;BMP180;10527;52.124;5.196;2023-05-20T05:11:48;102372.00;;;23.60
20733;BMP180;10527;52.124;5.196;2023-05-20T05:14:15;102362.00;;;23.60
20733;BMP180;10527;52.124;5.196;2023-05-20T05:16:42;102357.00;;;23.60
20733;BMP180;10527;52.124;5.196;2023-05-20T05:19:09;102367.00;;;23.70
20733;BMP180;10527;52.124;5.196;2023-05-20T05:21:36;102361.00;;;23.70
20733;BMP180;10527;52.124;5.196;2023-05-20T05:24:03;102364.00;;;23.70
20733;BMP180;10527;52.124;5.196;2023-05-20T05:26:29;102361.00;;;23.70
20733;BMP180;10527;52.124;5.196;2023-05-20T05:28:56;102353.00;;;23.70
20733;BMP180;10527;52.124;5.196;2023-05-20T05:31:23;102348.00;;;23.80
20733;BMP180;10527;52.124;5.196;2023-05-20T05:33:51;102346.00;;;23.80
20733;BMP180;10527;52.124;5.196;2023-05-20T05:36:18;102347.00;;;23.80
20733;BMP180;10527;52.124;5.196;2023-05-20T05:38:44;102343.00;;;23.80
20733;BMP180;10527;52.124;5.196;2023-05-20T05:41:11;102345.00;;;23.80
20733;BMP180;10527;52.124;5.196;2023-05-20T05:43:38;102346.00;;;23.80
20733;BMP180;10527;52.124;5.196;2023-05-20T05:46:05;102334.00;;;23.90
20733;BMP180;10527;52.124;5.196;2023-05-20T05:48:32;102335.00;;;23.90
20733;BMP180;10527;52.124;5.196;2023-05-20T05:51:00;102342.00;;;23.90
20733;BMP180;10527;52.124;5.196;2023-05-20T05:53:27;102340.00;;;23.90
20733;BMP180;10527;52.124;5.196;2023-05-20T05:55:53;102343.00;;;24.00
20733;BMP180;10527;52.124;5.196;2023-05-20T05:58:20;102336.00;;;24.00
20733;BMP180;10527;52.124;5.196;2023-05-20T06:00:51;102350.00;;;24.00
20733;BMP180;10527;52.124;5.196;2023-05-20T06:03:19;102352.00;;;24.00
20733;BMP180;10527;52.124;5.196;2023-05-20T06:05:48;102343.00;;;24.10
20733;BMP180;10527;52.124;5.196;2023-05-20T06:08:15;102339.00;;;24.10
20733;BMP180;10527;52.124;5.196;2023-05-20T06:10:49;102343.00;;;24.10
20733;BMP180;10527;52.124;5.196;2023-05-20T06:13:17;102341.00;;;24.20
20733;BMP180;10527;52.124;5.196;2023-05-20T06:15:43;102339.00;;;24.20
20733;BMP180;10527;52.124;5.196;2023-05-20T06:18:12;102341.00;;;24.20
20733;BMP180;10527;52.124;5.196;2023-05-20T06:20:38;102344.00;;;24.30
20733;BMP180;10527;52.124;5.196;2023-05-20T06:23:05;102352.00;;;24.30
20733;BMP180;10527;52.124;5.196;2023-05-20T06:25:34;102346.00;;;24.30
20733;BMP180;10527;52.124;5.196;2023-05-20T06:28:02;102346.00;;;24.40
20733;BMP180;10527;52.124;5.196;2023-05-20T06:30:29;102341.00;;;24.40
20733;BMP180;10527;52.124;5.196;2023-05-20T06:32:56;102359.00;;;24.40
20733;BMP180;10527;52.124;5.196;2023-05-20T06:35:24;102349.00;;;24.40
20733;BMP180;10527;52.124;5.196;2023-05-20T06:37:51;102355.00;;;24.40
20733;BMP180;10527;52.124;5.196;2023-05-20T06:40:18;102347.00;;;24.50
20733;BMP180;10527;52.124;5.196;2023-05-20T06:42:45;102338.00;;;24.50
20733;BMP180;10527;52.124;5.196;2023-05-20T06:45:12;102346.00;;;24.50
20733;BMP180;10527;52.124;5.196;2023-05-20T06:47:41;102340.00;;;24.60
20733;BMP180;10527;52.124;5.196;2023-05-20T06:50:09;102339.00;;;24.60
20733;BMP180;10527;52.124;5.196;2023-05-20T06:52:36;102332.00;;;24.60
20733;BMP180;10527;52.124;5.196;2023-05-20T06:55:04;102329.00;;;24.70
20733;BMP180;10527;52.124;5.196;2023-05-20T06:57:31;102330.00;;;24.70
20733;BMP180;10527;52.124;5.196;2023-05-20T06:59:58;102332.00;;;24.70
20733;BMP180;10527;52.124;5.196;2023-05-20T07:02:25;102332.00;;;24.80
20733;BMP180;10527;52.124;5.196;2023-05-20T07:04:52;102323.00;;;24.80
20733;BMP180;10527;52.124;5.196;2023-05-20T07:07:18;102321.00;;;24.80
20733;BMP180;10527;52.124;5.196;2023-05-20T07:09:45;102318.00;;;24.80
20733;BMP180;10527;52.124;5.196;2023-05-20T07:12:12;102321.00;;;24.90
20733;BMP180;10527;52.124;5.196;2023-05-20T07:14:41;102320.00;;;24.90
20733;BMP180;10527;52.124;5.196;2023-05-20T07:17:10;102315.00;;;25.00
20733;BMP180;10527;52.124;5.196;2023-05-20T07:19:36;102317.00;;;25.00
20733;BMP180;10527;52.124;5.196;2023-05-20T07:22:03;102318.00;;;25.10
20733;BMP180;10527;52.124;5.196;2023-05-20T07:24:30;102318.00;;;25.10
20733;BMP180;10527;52.124;5.196;2023-05-20T07:26:57;102311.00;;;25.10
20733;BMP180;10527;52.124;5.196;2023-05-20T07:29:25;102311.00;;;25.20
20733;BMP180;10527;52.124;5.196;2023-05-20T07:31:52;102305.00;;;25.20
20733;BMP180;10527;52.124;5.196;2023-05-20T07:34:19;102307.00;;;25.30
20733;BMP180;10527;52.124;5.196;2023-05-20T07:36:50;102302.00;;;25.30
20733;BMP180;10527;52.124;5.196;2023-05-20T07:39:17;102305.00;;;25.40
20733;BMP180;10527;52.124;5.196;2023-05-20T07:41:44;102293.00;;;25.40
20733;BMP180;10527;52.124;5.196;2023-05-20T07:44:11;102296.00;;;25.50
20733;BMP180;10527;52.124;5.196;2023-05-20T07:46:38;102298.00;;;25.50
20733;BMP180;10527;52.124;5.196;2023-05-20T07:49:07;102298.00;;;25.60
20733;BMP180;10527;52.124;5.196;2023-05-20T07:51:34;102296.00;;;25.80
20733;BMP180;10527;52.124;5.196;2023-05-20T07:54:01;102299.00;;;26.00
20733;BMP180;10527;52.124;5.196;2023-05-20T07:56:28;102286.00;;;26.30
20733;BMP180;10527;52.124;5.196;2023-05-20T07:58:58;102293.00;;;26.60
20733;BMP180;10527;52.124;5.196;2023-05-20T08:01:26;102282.00;;;27.00
20733;BMP180;10527;52.124;5.196;2023-05-20T08:03:53;102287.00;;;27.30
20733;BMP180;10527;52.124;5.196;2023-05-20T08:06:21;102283.00;;;27.70
20733;BMP180;10527;52.124;5.196;2023-05-20T08:08:55;102284.00;;;28.00
20733;BMP180;10527;52.124;5.196;2023-05-20T08:11:22;102281.00;;;28.30
20733;BMP180;10527;52.124;5.196;2023-05-20T08:13:52;102281.00;;;28.70
20733;BMP180;10527;52.124;5.196;2023-05-20T08:16:21;102277.00;;;29.00
20733;BMP180;10527;52.124;5.196;2023-05-20T08:18:50;102283.00;;;29.20
20733;BMP180;10527;52.124;5.196;2023-05-20T08:21:17;102286.00;;;29.40
20733;BMP180;10527;52.124;5.196;2023-05-20T08:23:43;102280.00;;;29.60
20733;BMP180;10527;52.124;5.196;2023-05-20T08:26:10;102286.00;;;29.80
20733;BMP180;10527;52.124;5.196;2023-05-20T08:28:37;102283.00;;;30.00
20733;BMP180;10527;52.124;5.196;2023-05-20T08:31:05;102290.00;;;30.10
20733;BMP180;10527;52.124;5.196;2023-05-20T08:33:32;102288.00;;;30.20
20733;BMP180;10527;52.124;5.196;2023-05-20T08:35:59;102282.00;;;30.30
20733;BMP180;10527;52.124;5.196;2023-05-20T08:38:26;102278.00;;;30.40
20733;BMP180;10527;52.124;5.196;2023-05-20T08:40:57;102271.00;;;30.50
20733;BMP180;10527;52.124;5.196;2023-05-20T08:43:25;102272.00;;;30.60
20733;BMP180;10527;52.124;5.196;2023-05-20T08:45:52;102272.00;;;30.60
20733;BMP180;10527;52.124;5.196;2023-05-20T08:48:24;102261.00;;;30.70
20733;BMP180;10527;52.124;5.196;2023-05-20T08:50:52;102264.00;;;30.70
20733;BMP180;10527;52.124;5.196;2023-05-20T08:53:28;102265.00;;;30.70
20733;BMP180;10527;52.124;5.196;2023-05-20T08:56:02;102255.00;;;30.60
20733;BMP180;10527;52.124;5.196;2023-05-20T08:58:30;102242.00;;;30.60
20733;BMP180;10527;52.124;5.196;2023-05-20T09:00:59;102242.00;;;30.60
20733;BMP180;10527;52.124;5.196;2023-05-20T09:03:26;102247.00;;;30.60
20733;BMP180;10527;52.124;5.196;2023-05-20T09:06:02;102255.00;;;30.70
20733;BMP180;10527;52.124;5.196;2023-05-20T09:08:30;102245.00;;;30.60
20733;BMP180;10527;52.124;5.196;2023-05-20T09:10:57;102241.00;;;30.60
20733;BMP180;10527;52.124;5.196;2023-05-20T09:13:26;102240.00;;;30.60
20733;BMP180;10527;52.124;5.196;2023-05-20T09:15:53;102250.00;;;30.50
20733;BMP180;10527;52.124;5.196;2023-05-20T09:18:20;102236.00;;;30.50
20733;BMP180;10527;52.124;5.196;2023-05-20T09:20:52;102237.00;;;30.40
20733;BMP180;10527;52.124;5.196;2023-05-20T09:23:20;102225.00;;;30.30
20733;BMP180;10527;52.124;5.196;2023-05-20T09:25:53;102228.00;;;30.20
20733;BMP180;10527;52.124;5.196;2023-05-20T09:28:26;102244.00;;;30.00
20733;BMP180;10527;52.124;5.196;2023-05-20T09:30:58;102236.00;;;30.00
20733;BMP180;10527;52.124;5.196;2023-05-20T09:33:30;102226.00;;;29.90
20733;BMP180;10527;52.124;5.196;2023-05-20T09:36:08;102228.00;;;29.80
20733;BMP180;10527;52.124;5.196;2023-05-20T09:38:43;102207.00;;;29.80
20733;BMP180;10527;52.124;5.196;2023-05-20T09:41:12;102220.00;;;29.80
20733;BMP180;10527;52.124;5.196;2023-05-20T09:43:46;102211.00;;;29.80
20733;BMP180;10527;52.124;5.196;2023-05-20T09:46:14;102216.00;;;29.80
20733;BMP180;10527;52.124;5.196;2023-05-20T09:48:43;102207.00;;;29.80
20733;BMP180;10527;52.124;5.196;2023-05-20T09:51:11;102213.00;;;29.80
20733;BMP180;10527;52.124;5.196;2023-05-20T09:53:40;102212.00;;;29.80
20733;BMP180;10527;52.124;5.196;2023-05-20T09:56:06;102209.00;;;29.70
20733;BMP180;10527;52.124;5.196;2023-05-20T09:58:35;102204.00;;;29.70
20733;BMP180;10527;52.124;5.196;2023-05-20T10:01:02;102202.00;;;29.80
20733;BMP180;10527;52.124;5.196;2023-05-20T10:03:30;102199.00;;;29.80
20733;BMP180;10527;52.124;5.196;2023-05-20T10:06:43;102206.00;;;29.90
20733;BMP180;10527;52.124;5.196;2023-05-20T10:12:26;102205.00;;;30.10
20733;BMP180;10527;52.124;5.196;2023-05-20T10:15:23;102195.00;;;30.30
20733;BMP180;10527;52.124;5.196;2023-05-20T10:18:10;102203.00;;;30.40
20733;BMP180;10527;52.124;5.196;2023-05-20T10:20:50;102191.00;;;30.50
20733;BMP180;10527;52.124;5.196;2023-05-20T10:23:27;102186.00;;;30.60
20733;BMP180;10527;52.124;5.196;2023-05-20T10:25:56;102185.00;;;30.70
20733;BMP180;10527;52.124;5.196;2023-05-20T10:28:32;102178.00;;;30.80
20733;BMP180;10527;52.124;5.196;2023-05-20T10:30:59;102176.00;;;31.00
20733;BMP180;10527;52.124;5.196;2023-05-20T10:33:29;102173.00;;;31.10
20733;BMP180;10527;52.124;5.196;2023-05-20T10:35:59;102166.00;;;31.20
20733;BMP180;10527;52.124;5.196;2023-05-20T10:38:26;102167.00;;;31.40
20733;BMP180;10527;52.124;5.196;2023-05-20T10:40:53;102158.00;;;31.50
20733;BMP180;10527;52.124;5.196;2023-05-20T10:43:27;102164.00;;;31.60
20733;BMP180;10527;52.124;5.196;2023-05-20T10:45:56;102161.00;;;31.70
20733;BMP180;10527;52.124;5.196;2023-05-20T10:48:31;102166.00;;;31.90
20733;BMP180;10527;52.124;5.196;2023-05-20T10:51:02;102167.00;;;31.90
20733;BMP180;10527;52.124;5.196;2023-05-20T10:53:41;102165.00;;;32.10
20733;BMP180;10527;52.124;5.196;2023-05-20T10:56:19;102158.00;;;32.10
20733;BMP180;10527;52.124;5.196;2023-05-20T10:58:47;102162.00;;;32.20
20733;BMP180;10527;52.124;5.196;2023-05-20T11:01:15;102160.00;;;32.30
20733;BMP180;10527;52.124;5.196;2023-05-20T11:03:45;102149.00;;;32.40
20733;BMP180;10527;52.124;5.196;2023-05-20T11:06:18;102162.00;;;32.50
20733;BMP180;10527;52.124;5.196;2023-05-20T11:08:45;102147.00;;;32.50
20733;BMP180;10527;52.124;5.196;2023-05-20T11:11:13;102144.00;;;32.60
20733;BMP180;10527;52.124;5.196;2023-05-20T11:13:41;102142.00;;;32.60
20733;BMP180;10527;52.124;5.196;2023-05-20T11:16:08;102148.00;;;32.70
20733;BMP180;10527;52.124;5.196;2023-05-20T11:18:35;102164.00;;;32.70
20733;BMP180;10527;52.124;5.196;2023-05-20T11:21:02;102148.00;;;32.70
20733;BMP180;10527;52.124;5.196;2023-05-20T11:23:29;102144.00;;;32.60
20733;BMP180;10527;52.124;5.196;2023-05-20T11:25:57;102147.00;;;32.60
20733;BMP180;10527;52.124;5.196;2023-05-20T11:28:24;102139.00;;;32.60
20733;BMP180;10527;52.124;5.196;2023-05-20T11:30:54;102120.00;;;32.60
20733;BMP180;10527;52.124;5.196;2023-05-20T11:33:25;102133.00;;;32.60
20733;BMP180;10527;52.124;5.196;2023-05-20T11:35:53;102134.00;;;32.70
20733;BMP180;10527;52.124;5.196;2023-05-20T11:38:20;102134.00;;;32.70
20733;BMP180;10527;52.124;5.196;2023-05-20T11:40:52;102115.00;;;32.80
20733;BMP180;10527;52.124;5.196;2023-05-20T11:43:22;102115.00;;;32.80
20733;BMP180;10527;52.124;5.196;2023-05-20T11:45:56;102129.00;;;32.90
20733;BMP180;10527;52.124;5.196;2023-05-20T11:48:26;102119.00;;;32.90
20733;BMP180;10527;52.124;5.196;2023-05-20T11:50:55;102121.00;;;32.80
20733;BMP180;10527;52.124;5.196;2023-05-20T11:53:23;102110.00;;;32.80
20733;BMP180;10527;52.124;5.196;2023-05-20T11:55:53;102117.00;;;32.80
20733;BMP180;10527;52.124;5.196;2023-05-20T11:58:25;102114.00;;;32.90
20733;BMP180;10527;52.124;5.196;2023-05-20T12:00:52;102106.00;;;32.90
20733;BMP180;10527;52.124;5.196;2023-05-20T12:03:31;102102.00;;;32.90
20733;BMP180;10527;52.124;5.196;2023-05-20T12:06:02;102099.00;;;33.00
20733;BMP180;10527;52.124;5.196;2023-05-20T12:08:29;102106.00;;;33.00
20733;BMP180;10527;52.124;5.196;2023-05-20T12:11:04;102101.00;;;33.00
20733;BMP180;10527;52.124;5.196;2023-05-20T12:13:31;102099.00;;;33.00
20733;BMP180;10527;52.124;5.196;2023-05-20T12:16:01;102098.00;;;32.90
20733;BMP180;10527;52.124;5.196;2023-05-20T12:18:27;102091.00;;;32.90
20733;BMP180;10527;52.124;5.196;2023-05-20T12:20:54;102085.00;;;33.00
20733;BMP180;10527;52.124;5.196;2023-05-20T12:23:23;102084.00;;;33.00
20733;BMP180;10527;52.124;5.196;2023-05-20T12:25:50;102096.00;;;33.00
20733;BMP180;10527;52.124;5.196;2023-05-20T12:28:26;102089.00;;;33.10
20733;BMP180;10527;52.124;5.196;2023-05-20T12:30:52;102086.00;;;33.00
20733;BMP180;10527;52.124;5.196;2023-05-20T12:33:19;102094.00;;;33.00
20733;BMP180;10527;52.124;5.196;2023-05-20T12:35:46;102098.00;;;33.00
20733;BMP180;10527;52.124;5.196;2023-05-20T12:38:13;102101.00;;;33.00
20733;BMP180;10527;52.124;5.196;2023-05-20T12:40:40;102091.00;;;33.00
20733;BMP180;10527;52.124;5.196;2023-05-20T12:43:07;102094.00;;;32.90
20733;BMP180;10527;52.124;5.196;2023-05-20T12:45:34;102092.00;;;32.90
20733;BMP180;10527;52.124;5.196;2023-05-20T12:48:01;102084.00;;;32.90
20733;BMP180;10527;52.124;5.196;2023-05-20T12:50:28;102079.00;;;32.90
20733;BMP180;10527;52.124;5.196;2023-05-20T12:52:55;102083.00;;;32.90
20733;BMP180;10527;52.124;5.196;2023-05-20T12:55:22;102071.00;;;32.90
20733;BMP180;10527;52.124;5.196;2023-05-20T12:57:49;102069.00;;;33.00
20733;BMP180;10527;52.124;5.196;2023-05-20T13:00:16;102066.00;;;33.00
20733;BMP180;10527;52.124;5.196;2023-05-20T13:02:43;102075.00;;;33.10
20733;BMP180;10527;52.124;5.196;2023-05-20T13:05:10;102071.00;;;33.10
20733;BMP180;10527;52.124;5.196;2023-05-20T13:07:37;102072.00;;;33.20
20733;BMP180;10527;52.124;5.196;2023-05-20T13:10:06;102081.00;;;33.20
20733;BMP180;10527;52.124;5.196;2023-05-20T13:12:34;102078.00;;;33.20
20733;BMP180;10527;52.124;5.196;2023-05-20T13:15:01;102057.00;;;33.10
20733;BMP180;10527;52.124;5.196;2023-05-20T13:17:28;102066.00;;;33.10
20733;BMP180;10527;52.124;5.196;2023-05-20T13:19:55;102062.00;;;33.10
20733;BMP180;10527;52.124;5.196;2023-05-20T13:22:22;102054.00;;;33.20
20733;BMP180;10527;52.124;5.196;2023-05-20T13:24:48;102061.00;;;33.20
20733;BMP180;10527;52.124;5.196;2023-05-20T13:27:15;102044.00;;;33.20
20733;BMP180;10527;52.124;5.196;2023-05-20T13:29:42;102052.00;;;33.30
20733;BMP180;10527;52.124;5.196;2023-05-20T13:32:09;102050.00;;;33.40
20733;BMP180;10527;52.124;5.196;2023-05-20T13:34:36;102057.00;;;33.50
20733;BMP180;10527;52.124;5.196;2023-05-20T13:37:05;102042.00;;;33.50
20733;BMP180;10527;52.124;5.196;2023-05-20T13:39:32;102045.00;;;33.60
20733;BMP180;10527;52.124;5.196;2023-05-20T13:41:59;102048.00;;;33.60
20733;BMP180;10527;52.124;5.196;2023-05-20T13:44:26;102045.00;;;33.60
20733;BMP180;10527;52.124;5.196;2023-05-20T13:46:53;102043.00;;;33.60
20733;BMP180;10527;52.124;5.196;2023-05-20T13:49:20;102052.00;;;33.60
20733;BMP180;10527;52.124;5.196;2023-05-20T13:51:47;102044.00;;;33.60
20733;BMP180;10527;52.124;5.196;2023-05-20T13:54:14;102047.00;;;33.60
20733;BMP180;10527;52.124;5.196;2023-05-20T13:56:41;102040.00;;;33.60
20733;BMP180;10527;52.124;5.196;2023-05-20T13:59:08;102042.00;;;33.60
20733;BMP180;10527;52.124;5.196;2023-05-20T14:01:35;102036.00;;;33.60
20733;BMP180;10527;52.124;5.196;2023-05-20T14:04:06;102044.00;;;33.60
20733;BMP180;10527;52.124;5.196;2023-05-20T14:06:33;102035.00;;;33.60